Dijon-Bourgogne Airport


Codes: LFSD/DIJ
Name: Dijon-Bourgogne Airport
City: Dijon/Longvic
Country: France
Elevation: 726 ft.
Website:

Photos at Dijon-Bourgogne Airport


   Photos courtesy of SpottingLog. You can add your own sightings and photos by signing up for a free trial today.



No photos found.

Weather at Dijon-Bourgogne Airport


Time (UTC)DescriptionTempratureWindCloud coverageVisibilityPressureHumidity
21-Feb-2024 03:00Scattered Clouds4°C4 mph, S33%10000m1028hPa92%
21-Feb-2024 06:00Broken Clouds4°C4 mph, SW67%10000m1027hPa93%
21-Feb-2024 09:00Overcast Clouds6°C9 mph, S100%10000m1024hPa86%
21-Feb-2024 12:00Overcast Clouds10°C13 mph, S100%10000m1021hPa68%
21-Feb-2024 15:00Overcast Clouds10°C11 mph, SW100%10000m1018hPa70%
21-Feb-2024 18:00Light Rain9°C11 mph, SW100%10000m1018hPa79%
21-Feb-2024 21:00Moderate Rain8°C18 mph, SW100%5625m1016hPa92%
22-Feb-2024 00:00Moderate Rain8°C20 mph, S100%6840m1013hPa95%
22-Feb-2024 03:00Moderate Rain8°C22 mph, S100%8370m1010hPa94%
22-Feb-2024 06:00Light Rain9°C25 mph, S100%10000m1008hPa94%
22-Feb-2024 09:00Light Rain9°C22 mph, S100%10000m1006hPa91%
22-Feb-2024 12:00Light Rain9°C22 mph, S100%10000m1003hPa88%
22-Feb-2024 15:00Light Rain9°C22 mph, S100%7146m999hPa91%
22-Feb-2024 18:00Moderate Rain10°C20 mph, SW100%4619m999hPa92%
22-Feb-2024 21:00Moderate Rain7°C16 mph, SW100%10000m1002hPa79%
23-Feb-2024 00:00Overcast Clouds5°C13 mph, SW100%10000m1005hPa81%
23-Feb-2024 03:00Scattered Clouds3°C9 mph, SW28%10000m1005hPa87%
23-Feb-2024 06:00Few Clouds2°C7 mph, SW16%10000m1004hPa93%
23-Feb-2024 09:00Clear Sky5°C11 mph, SW7%10000m1002hPa78%
23-Feb-2024 12:00Light Rain8°C16 mph, SW19%10000m1001hPa70%
23-Feb-2024 15:00Light Rain5°C13 mph, SW94%10000m1000hPa88%
23-Feb-2024 18:00Light Rain4°C9 mph, S87%10000m999hPa91%
23-Feb-2024 21:00Broken Clouds5°C13 mph, SW70%10000m1000hPa82%
24-Feb-2024 00:00Broken Clouds2°C11 mph, S83%10000m1000hPa93%
24-Feb-2024 03:00Light Rain2°C16 mph, SW100%718m1000hPa95%
24-Feb-2024 06:00Light Rain3°C13 mph, SW100%1369m1001hPa95%
24-Feb-2024 09:00Light Snow4°C11 mph, SW99%10000m1003hPa88%
24-Feb-2024 12:00Light Rain5°C18 mph, S100%10000m1004hPa87%
24-Feb-2024 15:00Light Rain6°C13 mph, SW94%10000m1003hPa80%
24-Feb-2024 18:00Broken Clouds4°C9 mph, S72%10000m1005hPa86%
24-Feb-2024 21:00Overcast Clouds3°C13 mph, S92%10000m1005hPa87%
25-Feb-2024 00:00Light Rain3°C13 mph, SW96%10000m1007hPa93%
25-Feb-2024 03:00Overcast Clouds4°C11 mph, SW100%10000m1007hPa86%
25-Feb-2024 06:00Light Rain4°C9 mph, SW100%10000m1009hPa88%
25-Feb-2024 09:00Overcast Clouds4°C11 mph, S100%10000m1009hPa87%
25-Feb-2024 12:00Overcast Clouds7°C13 mph, S100%10000m1006hPa68%
25-Feb-2024 15:00Overcast Clouds8°C13 mph, S99%10000m1003hPa67%
25-Feb-2024 18:00Overcast Clouds6°C16 mph, S99%10000m1002hPa71%
25-Feb-2024 21:00Light Rain6°C22 mph, S100%10000m1001hPa78%
26-Feb-2024 00:00Overcast Clouds6°C22 mph, S100%10000m1000hPa82%